Gillette, WY

12:19 PM MST on February 14, 2016 (GMT -0700)
Westover | | Change Station
CLOSE
Current Station
Personal Weather Station
Location: Gillette, WY
Elevation: 4757 ft
Nearby Weather Stations

Elev 4757 ft 44.28 °N, 105.55 °W | Updated 27 seconds ago

Overcast
Overcast
39.9 °F
Feels Like 33 °F
N
10.7
Wind Variable Wind from WNW
Gusts 15.0 mph

Today
High -- | Low -- °F
--% Chance of Precip.
Yesterday
High -- | Low -- °F
Precip. -- in
Pressure 29.88 in
Visibility 10.0 miles
Clouds Few 4900 ft
Overcast 10000 ft
Windchill 33 °F
Dew Point 27 °F
Humidity 60%
Rainfall 0.00 in
Snow Depth Not available.
7:03 AM 5:29 PM
Waxing Crescent, 44% visible
METAR KGCC 141853Z AUTO 30011KT 10SM FEW049 OVC100 04/M02 A2982 RMK AO2 SLP116 T00391017
Pressure 29.88 in
Visibility 10.0 miles
Clouds Few 4900 ft
Overcast 10000 ft
Windchill 33 °F
Dew Point 27 °F
Humidity 60%
Rainfall 0.00 in
Snow Depth Not available.
7:03 AM 5:29 PM
Waxing Crescent, 44% visible
METAR KGCC 141853Z AUTO 30011KT 10SM FEW049 OVC100 04/M02 A2982 RMK AO2 SLP116 T00391017

10-Day Weather Forecast

Almanac

Astronomy

Feb. 14, 2016 Rise Set
Actual Time
Civil Twilight
Nautical Twilight
Astronomical Twilight
Moon
Length of Visible Light
Length of Day
Tomorrow will be .
, % of the Moon is Illuminated

Today's Extremes

State Highs State Lows

Community

WunderPhotos

Upload Photos

1,892,875 photos uploaded!

WunderBlog® & News

Nearby

Air Quality

  Air Quality AQ Index Pollutant
Not available.

Snow Depth

Station Depth Elevation

Earthquake Activity

City Distance Mag. Time & Date
Minimum magnitude displayed is 2.5.

Coastal Water Temperatures

Place Temperature

Stations

Nearby Weather Stations

Station Location Temp. Windchill Dew Point Humidity Wind Precip. Elev Updated Type
                   

Watches & Warnings

There are currently no watches in effect.